Latest Weather Observations for Naracoorte

IDS60801

Issued at 7:35 pm CST Friday 29 August 2014 (issued every 30 minutes, with the page automatically refreshed every 10 minutes)

About weather observations | Map of weather stations | Latest weather observations for SA | Other Formats
Station Details ID: 026099 Name: NARACOORTE AERODROME Lat: -36.98 Lon: 140.73 Height: 49.72 m
Data from the previous 72 hours. | See also: Recent months at Naracoorte
Date/Time
CST
Temp
°C
App
Temp
°C
Dew
Point
Rel
Hum
%
Delta-T
°C
Wind Press
QNH
hPa
Press
MSL
hPa
Rain
since 9 am
mm
Dir
 
Spd
km/h
Gust
km/h
Spd
kts
Gust
kts
29/07:30pm 10.7 10.2 7.8 82 1.4 SE 0 0 0 0 1026.3 1026.4 0.0
29/07:00pm 12.4 12.1 8.5 77 1.9 SE 0 0 0 0 1026.3 1026.4 0.0
29/06:30pm 11.7 11.0 7.0 73 2.2 CALM 0 0 0 0 1026.1 1026.2 0.0
29/06:00pm 14.7 14.5 8.9 68 2.9 CALM 0 0 0 0 1026.0 1026.1 0.0
29/05:30pm 16.6 16.7 10.0 65 3.5 CALM 0 0 0 0 1025.9 1026.0 0.0
29/05:00pm 18.7 19.2 11.5 63 4.0 CALM 0 0 0 0 1025.9 1026.0 0.0
29/04:30pm 20.5 20.2 8.8 47 6.1 CALM 0 0 0 0 1025.9 1026.0 0.0
29/04:00pm 21.0 19.7 6.2 38 7.5 S 2 9 1 5 1025.9 1026.0 0.0
29/03:30pm 21.4 20.6 8.0 42 7.0 S 2 11 1 6 1025.9 1026.0 0.0
29/03:00pm 21.5 20.0 3.2 30 8.7 CALM 0 0 0 0 1026.2 1026.3 0.0
29/02:30pm 21.5 19.2 2.7 29 8.8 SW 4 13 2 7 1026.3 1026.4 0.0
29/02:00pm 21.3 20.2 8.6 44 6.7 SW 4 13 2 7 1026.6 1026.7 0.0
29/01:30pm 21.1 21.2 10.0 49 6.0 CALM 0 0 0 0 1026.9 1027.0 0.0
29/01:00pm 21.1 21.5 11.2 53 5.5 CALM 0 0 0 0 1027.2 1027.3 0.0
29/12:30pm 19.9 20.0 10.0 53 5.3 CALM 0 0 0 0 1027.6 1027.7 0.0
29/12:00pm 19.7 19.9 10.4 55 5.0 CALM 0 7 0 4 1028.1 1028.2 0.0
29/11:30am 19.1 19.2 10.1 56 4.8 CALM 0 0 0 0 1028.6 1028.7 0.0
29/11:00am 18.5 18.6 10.3 59 4.4 CALM 0 6 0 3 1028.8 1028.9 0.0
29/10:30am 17.4 16.3 9.8 61 4.0 N 6 9 3 5 1029.0 1029.1 0.0
29/10:00am 16.0 14.5 10.7 71 2.8 N 9 11 5 6 1029.0 1029.1 0.0
29/09:30am 13.9 12.3 10.3 79 1.9 N 9 13 5 7 1029.3 1029.4 0.0
29/09:00am 11.4 9.2 9.5 88 1.0 N 11 15 6 8 1029.5 1029.6 0.0
29/08:30am 9.5 7.2 9.0 97 0.2 NNE 11 15 6 8 1029.5 1029.6 0.0
29/08:00am 8.3 6.7 8.2 99 0.0 N 6 11 3 6 1029.3 1029.4 0.0
29/07:30am 4.4 3.1 4.3 99 0.0 CALM 0 0 0 0 1029.1 1029.2 0.0
29/07:00am 2.3 0.7 2.2 99 0.0 CALM 0 0 0 0 1028.7 1028.8 0.0
29/06:30am 2.3 0.6 2.0 98 0.1 CALM 0 2 0 1 1028.4 1028.5 0.0
29/06:00am 3.4 0.2 3.3 99 0.0 NNE 9 11 5 6 1028.1 1028.2 0.0
29/05:30am 2.0 -1.0 1.9 99 0.0 N 7 9 4 5 1027.8 1027.9 0.0
29/05:00am 2.6 -0.4 2.3 98 0.1 N 7 9 4 5 1027.8 1027.9 0.0
29/04:30am 3.3 0.7 3.0 98 0.1 N 6 9 3 5 1027.7 1027.8 0.0
29/04:00am 2.5 0.9 2.2 98 0.1 CALM 0 0 0 0 1027.9 1028.0 0.0
29/03:30am 3.1 1.6 2.8 98 0.1 CALM 0 0 0 0 1027.9 1028.0 0.0
29/03:00am 3.5 2.0 3.2 98 0.1 CALM 0 0 0 0 1028.0 1028.1 0.0
29/02:30am 4.2 2.8 3.8 97 0.2 CALM 0 0 0 0 1028.1 1028.2 0.0
29/02:00am 4.6 3.3 4.2 97 0.2 CALM 0 0 0 0 1028.3 1028.4 0.0
29/01:30am 4.6 3.3 4.2 97 0.2 CALM 0 0 0 0 1028.7 1028.8 0.0
29/01:00am 5.6 4.5 5.2 97 0.2 CALM 0 0 0 0 1028.8 1028.9 0.0
29/12:30am 4.7 3.4 4.3 97 0.2 CALM 0 0 0 0 1028.8 1028.9 0.0
29/12:00am 5.1 3.9 4.5 96 0.3 ESE 0 0 0 0 1028.8 1028.9 0.0
 
Date/Time
CST
Temp
°C
App
Temp
°C
Dew
Point
Rel
Hum
%
Delta-T
°C
Wind Press
QNH
hPa
Press
MSL
hPa
Rain
since 9 am
mm
Dir
 
Spd
km/h
Gust
km/h
Spd
kts
Gust
kts
28/11:30pm 5.8 4.8 5.4 97 0.2 CALM 0 0 0 0 1028.7 1028.8 0.0
28/11:00pm 5.9 4.8 5.0 94 0.4 CALM 0 0 0 0 1028.7 1028.8 0.0
28/10:30pm 6.6 5.6 5.7 94 0.4 CALM 0 0 0 0 1028.8 1028.9 0.0
28/10:00pm 8.0 7.3 6.9 93 0.5 CALM 0 0 0 0 1029.1 1029.2 0.0
28/09:30pm 7.9 6.3 6.4 90 0.7 E 4 7 2 4 1028.8 1028.9 0.0
28/09:00pm 9.1 8.5 7.2 88 0.9 CALM 0 0 0 0 1028.7 1028.8 0.0
28/08:30pm 10.2 8.7 8.5 89 0.8 SE 6 7 3 4 1028.6 1028.7 0.0
28/08:00pm 10.2 8.6 8.1 87 1.0 SE 6 7 3 4 1028.7 1028.8 0.0
28/07:30pm 9.7 7.8 7.6 87 1.0 SSE 7 9 4 5 1028.5 1028.6 0.0
28/07:00pm 11.1 9.7 9.0 87 1.0 WSW 6 7 3 4 1028.2 1028.3 0.0
28/06:30pm 11.2 8.6 9.3 88 0.9 WSW 13 13 7 7 1028.1 1028.2 0.0
28/06:00pm 11.3 7.8 8.7 84 1.3 WSW 17 19 9 10 1028.1 1028.2 0.0
28/05:30pm 14.4 12.1 10.4 77 2.1 W 13 15 7 8 1027.7 1027.8 0.0
28/05:00pm 17.4 14.7 11.7 69 3.1 WSW 17 19 9 10 1027.6 1027.7 0.0
28/04:30pm 19.7 18.1 12.7 64 3.9 WSW 13 15 7 8 1027.2 1027.3 0.0
28/04:00pm 20.5 18.2 10.6 53 5.4 WSW 13 17 7 9 1027.1 1027.2 0.0
28/03:30pm 20.7 18.0 10.2 51 5.7 W 15 20 8 11 1026.8 1026.9 0.0
28/03:00pm 21.1 18.0 8.7 45 6.5 W 15 20 8 11 1026.9 1027.0 0.0
28/02:30pm 21.1 18.8 10.6 51 5.7 WNW 13 20 7 11 1026.9 1027.0 0.0
28/02:00pm 21.0 18.6 10.2 50 5.9 NNW 13 19 7 10 1026.9 1027.0 0.0
28/01:30pm 20.9 18.4 9.8 49 5.9 NNW 13 19 7 10 1027.1 1027.2 0.0
28/01:00pm 20.7 18.6 11.1 54 5.3 NNW 13 20 7 11 1027.5 1027.6 0.0
28/12:30pm 20.5 18.4 11.2 55 5.1 NNW 13 17 7 9 1028.0 1028.1 0.0
28/12:00pm 19.8 17.8 10.2 54 5.1 NW 11 17 6 9 1028.4 1028.5 0.0
28/11:30am 19.0 15.9 8.9 52 5.3 NW 15 22 8 12 1028.7 1028.8 0.0
28/11:00am 18.5 16.4 11.1 62 4.0 NW 13 19 7 10 1029.0 1029.1 0.0
28/10:30am 17.4 15.6 10.8 65 3.5 NNW 11 15 6 8 1029.1 1029.2 0.0
28/10:00am 16.7 15.5 10.3 66 3.4 NW 7 9 4 5 1029.2 1029.3 0.0
28/09:30am 15.1 14.0 9.9 71 2.7 N 6 9 3 5 1029.5 1029.6 0.0
28/09:00am 12.7 10.9 9.3 80 1.7 N 9 13 5 7 1029.6 1029.7 0.0
28/08:30am 10.6 7.7 8.2 85 1.2 N 13 17 7 9 1029.6 1029.7 0.0
28/08:00am 9.4 6.7 7.5 88 0.9 N 11 17 6 9 1029.4 1029.5 0.0
28/07:30am 8.4 6.4 7.0 91 0.6 N 7 9 4 5 1029.2 1029.3 0.0
28/07:00am 7.7 5.2 6.6 93 0.5 NNE 9 13 5 7 1029.0 1029.1 0.0
28/06:30am 7.2 4.6 6.1 93 0.5 NNE 9 13 5 7 1028.6 1028.7 0.0
28/06:00am 7.5 5.0 6.4 93 0.5 NNE 9 11 5 6 1028.3 1028.4 0.0
28/05:30am 7.8 5.7 6.6 92 0.5 NNE 7 19 4 10 1028.1 1028.2 0.0
28/05:00am 7.5 5.4 6.0 90 0.7 NE 6 7 3 4 1027.9 1028.0 0.0
28/04:30am 8.8 6.8 7.3 90 0.7 ENE 7 11 4 6 1027.8 1027.9 0.0
28/04:00am 8.9 6.9 7.2 89 0.8 NE 7 9 4 5 1027.7 1027.8 0.0
28/03:30am 9.4 7.6 8.0 91 0.7 NE 7 9 4 5 1027.7 1027.8 0.0
28/03:00am 8.7 6.4 7.3 91 0.7 NE 9 11 5 6 1027.9 1028.0 0.0
28/02:30am 8.9 6.7 7.8 93 0.5 NE 9 11 5 6 1027.9 1028.0 0.0
28/02:00am 8.3 6.1 7.7 96 0.3 ENE 9 11 5 6 1028.1 1028.2 0.0
28/01:30am 5.0 3.8 4.4 96 0.3 CALM 0 6 0 3 1028.3 1028.4 0.0
28/01:00am 4.9 2.9 4.2 95 0.3 ENE 4 7 2 4 1028.6 1028.7 0.0
28/12:30am 5.6 3.7 4.9 95 0.3 ENE 4 9 2 5 1028.7 1028.8 0.0
28/12:00am 5.9 3.7 5.3 96 0.3 ESE 6 7 3 4 1028.7 1028.8 0.0
 
Date/Time
CST
Temp
°C
App
Temp
°C
Dew
Point
Rel
Hum
%
Delta-T
°C
Wind Press
QNH
hPa
Press
MSL
hPa
Rain
since 9 am
mm
Dir
 
Spd
km/h
Gust
km/h
Spd
kts
Gust
kts
27/11:30pm 6.3 4.9 5.7 96 0.3 ESE 2 6 1 3 1028.7 1028.8 0.0
27/11:00pm 5.1 2.2 4.4 95 0.3 S 9 11 5 6 1028.9 1029.0 0.0
27/10:30pm 5.0 2.4 4.1 94 0.4 SSE 7 9 4 5 1028.8 1028.9 0.0
27/10:00pm 5.9 3.6 4.9 93 0.4 S 6 6 3 3 1028.7 1028.8 0.0
27/09:30pm 7.0 6.0 5.8 92 0.5 CALM 0 0 0 0 1028.6 1028.7 0.0
27/09:00pm 7.3 5.0 5.6 89 0.8 SE 7 9 4 5 1028.5 1028.6 0.0
27/08:30pm 8.0 5.4 6.3 89 0.8 SSE 9 11 5 6 1028.5 1028.6 0.0
27/08:00pm 9.0 6.7 7.3 89 0.8 SSE 9 11 5 6 1028.4 1028.5 0.0
27/07:30pm 9.3 6.8 6.6 83 1.2 S 9 9 5 5 1028.2 1028.3 0.0
27/07:00pm 11.7 10.1 8.2 79 1.7 SSE 6 7 3 4 1027.8 1027.9 0.0
27/06:30pm 12.1 10.4 8.2 77 1.9 SSE 7 9 4 5 1027.6 1027.7 0.0
27/06:00pm 12.8 11.5 9.3 79 1.8 S 6 7 3 4 1027.4 1027.5 0.0
27/05:30pm 15.2 14.2 11.0 76 2.2 SSW 7 9 4 5 1027.0 1027.1 0.0
27/05:00pm 16.6 15.3 11.1 70 3.0 SW 9 11 5 6 1026.8 1026.9 0.0
27/04:30pm 18.1 16.6 10.5 61 4.1 SW 9 11 5 6 1026.6 1026.7 0.0
27/04:00pm 19.5 17.6 9.1 51 5.5 WSW 9 11 5 6 1026.5 1026.6 0.0
27/03:30pm 19.3 17.3 7.1 45 6.1 WSW 7 11 4 6 1026.5 1026.6 0.0
27/03:00pm 19.9 17.2 5.5 39 7.1 WSW 9 15 5 8 1026.4 1026.5 0.0
27/02:30pm 20.0 18.4 8.0 46 6.2 WNW 6 13 3 7 1026.4 1026.5 0.0
27/02:00pm 20.1 18.8 9.1 49 5.8 W 6 11 3 6 1026.4 1026.5 0.0
27/01:30pm 19.4 18.2 8.1 48 5.8 NNW 4 13 2 7 1026.7 1026.8 0.0
27/01:00pm 18.8 16.6 7.9 49 5.6 NNW 9 15 5 8 1027.0 1027.1 0.0
27/12:30pm 19.2 17.0 9.4 53 5.2 NW 11 15 6 8 1027.4 1027.5 0.0
27/12:00pm 18.6 17.3 9.9 57 4.6 WNW 7 13 4 7 1027.8 1027.9 0.0
27/11:30am 17.4 15.3 9.8 61 4.0 WNW 11 17 6 9 1028.2 1028.3 0.0
27/11:00am 17.0 15.6 10.8 67 3.3 NW 9 13 5 7 1028.4 1028.5 0.0
27/10:30am 16.2 15.3 10.5 69 3.0 WNW 6 9 3 5 1028.5 1028.6 0.0
27/10:00am 14.5 13.3 9.7 73 2.5 N 6 9 3 5 1028.5 1028.6 0.0
27/09:30am 13.0 11.4 8.9 76 2.1 N 7 11 4 6 1028.5 1028.6 0.0
27/09:00am 10.3 9.4 7.9 85 1.2 N 2 9 1 5 1028.5 1028.6 0.2
27/08:30am 8.4 7.1 7.6 95 0.4 N 4 11 2 6 1028.0 1028.1 0.2
27/08:00am 7.1 6.3 6.7 97 0.2 CALM 0 0 0 0 1028.2 1028.3 0.2
27/07:30am 5.9 2.5 5.8 99 0.0 NE 13 17 7 9 1027.6 1027.7 0.2
27/07:24am 5.4 1.9 5.4 100 0.0 NE 13 17 7 9 1027.4 1027.5 0.2
27/07:00am 0.3 -2.0 0.2 99 0.0 NNE 2 6 1 3 1027.4 1027.5 0.2
27/06:30am 0.6 -1.3 0.3 98 0.1 CALM 0 0 0 0 1027.1 1027.2 0.2
27/06:00am 0.5 -1.4 0.4 99 0.0 CALM 0 0 0 0 1026.8 1026.9 0.0
27/05:30am 1.6 -0.2 1.5 99 0.0 CALM 0 0 0 0 1026.5 1026.6 0.0
27/05:00am 1.8 0.1 1.7 99 0.0 CALM 0 0 0 0 1026.6 1026.7 0.0
27/04:30am 0.8 -1.1 0.7 99 0.0 CALM 0 0 0 0 1026.5 1026.6 0.0
27/04:00am 1.3 -0.5 1.2 99 0.0 CALM 0 0 0 0 1026.3 1026.4 0.0
27/03:30am 1.3 -0.5 0.9 97 0.1 CALM 0 0 0 0 1026.2 1026.3 0.0
27/03:00am 1.8 0.0 1.5 98 0.1 CALM 0 0 0 0 1026.3 1026.4 0.0
27/02:30am 3.6 2.2 3.3 98 0.1 CALM 0 4 0 2 1026.5 1026.6 0.0
27/02:00am 2.7 1.1 2.4 98 0.1 CALM 0 0 0 0 1026.7 1026.8 0.0
27/01:30am 3.3 1.8 3.0 98 0.1 CALM 0 0 0 0 1026.8 1026.9 0.0
27/01:00am 2.1 0.0 1.7 97 0.2 WSW 2 7 1 4 1026.7 1026.8 0.0
27/12:30am 2.8 -0.5 2.4 97 0.2 WNW 9 13 5 7 1026.4 1026.5 0.0
27/12:00am 5.2 3.3 4.8 97 0.2 NE 4 6 2 3 1026.3 1026.4 0.0
 
Date/Time
CST
Temp
°C
App
Temp
°C
Dew
Point
Rel
Hum
%
Delta-T
°C
Wind Press
QNH
hPa
Press
MSL
hPa
Rain
since 9 am
mm
Dir
 
Spd
km/h
Gust
km/h
Spd
kts
Gust
kts
26/11:30pm 5.8 4.0 5.4 97 0.2 E 4 7 2 4 1026.4 1026.5 0.0
26/11:00pm 5.6 4.5 5.0 96 0.3 CALM 0 0 0 0 1026.4 1026.5 0.0
26/10:30pm 5.2 2.8 4.5 95 0.3 E 6 7 3 4 1026.6 1026.7 0.0
26/10:00pm 5.8 4.7 5.1 95 0.3 CALM 0 0 0 0 1026.5 1026.6 0.0
26/09:30pm 5.7 4.6 5.0 95 0.3 CALM 0 0 0 0 1026.5 1026.6 0.0
26/09:00pm 6.8 5.8 5.6 92 0.5 CALM 0 6 0 3 1026.5 1026.6 0.0
26/08:30pm 7.1 6.2 6.0 93 0.5 CALM 0 0 0 0 1026.4 1026.5 0.0
26/08:00pm 8.1 7.3 6.7 91 0.6 CALM 0 0 0 0 1026.3 1026.4 0.0

Other Formats:

Comma delimited format used in spreadsheet applications
http://www.bom.gov.au/fwo/IDS60801/IDS60801.94820.axf

JavaScript Object Notation format (JSON) in row-major order
http://www.bom.gov.au/fwo/IDS60801/IDS60801.94820.json